Time;durP1;ratioP1;P1;durP2;ratioP2;P2;SDS_P1;SDS_P2;PMS_P1;PMS_P2;Temp;Humidity;BMP_temperature;BMP_pressure;BME280_temperature;BME280_humidity;BME280_pressure;Samples;Min_cycle;Max_cycle;Signal;HPM_P1;HPM_P2
2022/02/27 00:02:18;;;;;;;27.73;18.45;;;102.50;2227.20;;;;;;5057881;28;20025;-63
2022/02/27 00:04:44;;;;;;;30.08;19.75;;;102.40;2227.20;;;;;;5057938;28;20020;-65
2022/02/27 00:07:10;;;;;;;29.27;17.70;;;77.70;2227.20;;;;;;5059071;28;20452;-62
2022/02/27 00:09:36;;;;;;;29.48;17.52;;;102.40;2227.20;;;;;;5066352;28;20077;-63
2022/02/27 00:12:02;;;;;;;28.70;18.75;;;102.40;2227.20;;;;;;5069274;28;20036;-61
2022/02/27 00:14:27;;;;;;;25.95;17.10;;;77.70;2227.20;;;;;;5069279;28;20067;-59
2022/02/27 00:16:53;;;;;;;25.80;18.02;;;77.70;2227.20;;;;;;5069406;28;20035;-63
2022/02/27 00:19:21;;;;;;;25.17;17.30;;;77.70;2227.20;;;;;;5069478;28;20032;-62
2022/02/27 00:21:47;;;;;;;30.38;18.05;;;77.70;2227.20;;;;;;5069564;28;20410;-64
2022/02/27 00:24:14;;;;;;;26.63;18.15;;;77.50;2227.20;;;;;;5068437;28;20036;-64
2022/02/27 00:26:39;;;;;;;24.95;17.40;;;77.50;2227.20;;;;;;5069013;28;20037;-64
2022/02/27 00:29:05;;;;;;;28.55;18.45;;;77.60;2227.20;;;;;;5069222;28;20492;-67
2022/02/27 00:31:31;;;;;;;26.00;17.23;;;77.50;2227.20;;;;;;5069375;28;20106;-62
2022/02/27 00:33:57;;;;;;;30.10;20.23;;;77.60;2227.20;;;;;;5069478;28;20083;-64
2022/02/27 00:36:22;;;;;;;53.50;31.70;;;77.70;2227.20;;;;;;5069399;28;20490;-63
2022/02/27 00:38:48;;;;;;;46.03;29.52;;;77.60;2227.20;;;;;;5069354;28;20627;-62
2022/02/27 00:41:14;;;;;;;67.63;38.08;;;77.60;2227.20;;;;;;5069188;28;20099;-64
2022/02/27 00:43:39;;;;;;;70.72;42.15;;;77.70;2227.20;;;;;;5069039;28;20115;-59
2022/02/27 00:46:06;;;;;;;59.97;38.03;;;77.50;2227.20;;;;;;5069352;28;20081;-59
2022/02/27 00:48:33;;;;;;;52.65;34.40;;;77.50;2227.20;;;;;;5069182;28;20070;-64
2022/02/27 00:50:58;;;;;;;46.88;31.67;;;77.50;2227.20;;;;;;5068918;28;20028;-60
2022/02/27 00:53:24;;;;;;;45.50;25.92;;;77.40;2227.20;;;;;;5069245;28;20021;-61
2022/02/27 00:55:50;;;;;;;33.28;22.40;;;77.40;2227.20;;;;;;5068966;28;20657;-59
2022/02/27 00:58:16;;;;;;;39.92;25.25;;;77.20;2227.20;;;;;;5068915;28;20036;-64
2022/02/27 01:00:41;;;;;;;32.92;22.88;;;77.20;2227.20;;;;;;5068687;28;20072;-64
2022/02/27 01:03:07;;;;;;;38.00;22.98;;;77.30;2227.20;;;;;;5069001;28;20020;-58
2022/02/27 01:05:33;;;;;;;33.05;21.48;;;77.20;2227.20;;;;;;5068973;28;20029;-63
2022/02/27 01:07:59;;;;;;;38.83;25.67;;;77.30;2227.20;;;;;;5069739;28;20078;-62
2022/02/27 01:10:24;;;;;;;41.25;25.63;;;77.20;2227.20;;;;;;5072684;28;20048;-63
2022/02/27 01:12:50;;;;;;;41.88;26.73;;;77.20;1945.60;;;;;;5072527;28;20119;-60
2022/02/27 01:15:17;;;;;;;40.05;25.15;;;77.00;2227.20;;;;;;5072985;28;20030;-63
2022/02/27 01:17:43;;;;;;;39.38;26.40;;;77.40;2227.20;;;;;;5072821;28;20054;-62
2022/02/27 01:20:09;;;;;;;43.90;25.95;;;77.00;2227.20;;;;;;5072633;28;20486;-61
2022/02/27 01:22:35;;;;;;;38.03;24.67;;;77.00;2227.20;;;;;;5072598;28;20029;-60
2022/02/27 01:25:03;;;;;;;37.72;24.17;;;77.00;2227.20;;;;;;5072543;28;20111;-60
2022/02/27 01:27:29;;;;;;;35.28;21.85;;;77.00;2227.20;;;;;;5072144;28;20174;-62
2022/02/27 01:29:55;;;;;;;33.72;21.88;;;77.00;2227.20;;;;;;5072691;28;20119;-63
2022/02/27 01:32:21;;;;;;;26.70;18.40;;;77.00;2227.20;;;;;;5072463;28;20129;-62
2022/02/27 01:34:48;;;;;;;25.35;17.15;;;77.00;2227.20;;;;;;5072547;28;20491;-59
2022/02/27 01:37:18;;;;;;;25.17;16.75;;;77.10;2227.20;;;;;;5072342;28;20029;-60
2022/02/27 01:39:44;;;;;;;21.67;14.55;;;77.30;2227.20;;;;;;5072411;28;20121;-59
2022/02/27 01:42:12;;;;;;;24.25;16.88;;;77.30;2227.20;;;;;;5072079;28;20502;-61
2022/02/27 01:44:42;;;;;;;22.27;14.77;;;77.40;2227.20;;;;;;5072437;28;20035;-59
2022/02/27 01:47:11;;;;;;;18.30;13.65;;;77.60;2227.20;;;;;;5072162;28;20043;-63
2022/02/27 01:49:39;;;;;;;20.55;14.25;;;77.50;2227.20;;;;;;5072170;28;20029;-64
2022/02/27 01:52:06;;;;;;;22.25;17.08;;;77.50;2227.20;;;;;;5072052;28;20112;-58
2022/02/27 01:54:32;;;;;;;19.33;12.63;;;77.60;2227.20;;;;;;5071801;28;20035;-64
2022/02/27 01:56:59;;;;;;;18.42;13.65;;;102.40;2227.20;;;;;;5071844;28;20029;-62
2022/02/27 01:59:24;;;;;;;16.08;11.75;;;102.40;2227.20;;;;;;5072023;28;20068;-59
2022/02/27 02:01:50;;;;;;;15.73;11.57;;;102.40;2227.20;;;;;;5071779;28;20109;-61
2022/02/27 02:04:16;;;;;;;17.10;11.88;;;102.40;2227.20;;;;;;5072147;28;20024;-63
2022/02/27 02:06:42;;;;;;;17.10;12.70;;;102.40;2227.20;;;;;;5071998;28;20419;-63
2022/02/27 02:09:08;;;;;;;16.00;11.90;;;77.60;2227.20;;;;;;5071607;28;20021;-64
2022/02/27 02:11:36;;;;;;;18.10;14.63;;;77.60;2227.20;;;;;;5071640;28;20024;-63
2022/02/27 02:14:03;;;;;;;17.80;12.40;;;77.50;2227.20;;;;;;5071682;28;20500;-57
2022/02/27 02:16:50;;;;;;;18.98;12.30;;;77.70;2227.20;;;;;;5071699;28;20029;-61
2022/02/27 02:19:17;;;;;;;13.98;11.48;;;77.70;2227.20;;;;;;5071417;28;20479;-61
2022/02/27 02:21:52;;;;;;;12.65;10.02;;;102.40;2227.20;;;;;;5071399;28;20024;-63
2022/02/27 02:24:19;;;;;;;12.02;8.73;;;102.50;2227.20;;;;;;5071512;28;20016;-63
2022/02/27 02:26:46;;;;;;;11.95;8.05;;;102.50;2227.20;;;;;;5071510;28;20111;-63
2022/02/27 02:29:16;;;;;;;12.25;8.75;;;102.40;2227.20;;;;;;5071064;28;20490;-57
2022/02/27 02:31:46;;;;;;;12.57;9.35;;;102.40;2227.20;;;;;;5071355;28;20056;-64
2022/02/27 02:34:15;;;;;;;12.07;9.07;;;102.40;2227.20;;;;;;5071397;28;20025;-64
2022/02/27 02:36:42;;;;;;;12.07;7.88;;;102.40;2227.20;;;;;;5071160;28;20085;-61
2022/02/27 02:39:11;;;;;;;11.82;7.53;;;102.40;2227.20;;;;;;5071113;28;20024;-65
2022/02/27 02:41:37;;;;;;;11.85;8.88;;;77.70;2227.20;;;;;;5071318;28;20059;-60
2022/02/27 02:44:05;;;;;;;10.38;8.30;;;77.70;2227.20;;;;;;5071351;28;20028;-65
2022/02/27 02:46:31;;;;;;;12.85;8.57;;;77.70;2227.20;;;;;;5071031;28;20040;-61
2022/02/27 02:48:57;;;;;;;9.57;7.53;;;77.60;2227.20;;;;;;5071288;28;20428;-64
2022/02/27 02:51:23;;;;;;;10.23;6.97;;;77.60;2227.20;;;;;;5070877;28;20094;-65
2022/02/27 02:53:49;;;;;;;10.85;7.88;;;77.40;2227.20;;;;;;5070890;28;20107;-62
2022/02/27 02:56:15;;;;;;;10.57;8.48;;;77.40;2227.20;;;;;;5071354;28;20124;-63
2022/02/27 02:58:42;;;;;;;15.88;11.15;;;77.40;2227.20;;;;;;5070463;28;20028;-62
2022/02/27 03:01:10;;;;;;;18.10;12.75;;;77.40;2227.20;;;;;;5070823;28;20147;-60
2022/02/27 03:03:37;;;;;;;20.02;13.13;;;77.30;2227.20;;;;;;5070892;28;20023;-63
2022/02/27 03:06:04;;;;;;;16.60;11.30;;;77.40;2227.20;;;;;;5070784;28;20029;-63
2022/02/27 03:08:30;;;;;;;15.50;9.85;;;77.30;2227.20;;;;;;5070487;28;20474;-60
2022/02/27 03:10:57;;;;;;;12.70;8.90;;;77.30;2227.20;;;;;;5070720;28;20056;-62
2022/02/27 03:13:23;;;;;;;11.15;8.35;;;77.40;2227.20;;;;;;5070628;28;20096;-62
2022/02/27 03:15:49;;;;;;;12.55;8.77;;;77.40;2227.20;;;;;;5070541;28;20190;-62
2022/02/27 03:18:14;;;;;;;12.77;8.40;;;77.30;2227.20;;;;;;5070637;28;20051;-64
2022/02/27 03:20:40;;;;;;;11.35;8.93;;;77.30;1996.80;;;;;;5070309;28;20085;-60
2022/02/27 03:23:06;;;;;;;15.02;11.30;;;77.30;2227.20;;;;;;5070396;28;20471;-60
2022/02/27 03:25:32;;;;;;;14.23;10.70;;;77.20;2227.20;;;;;;5070224;28;20035;-65
2022/02/27 03:27:58;;;;;;;15.43;10.48;;;77.30;2227.20;;;;;;5069988;28;20040;-64
2022/02/27 03:30:24;;;;;;;14.55;9.20;;;77.20;2227.20;;;;;;5070392;28;20037;-64
2022/02/27 03:32:49;;;;;;;17.42;10.88;;;77.10;1971.20;;;;;;5069943;28;20789;-60
2022/02/27 03:35:17;;;;;;;14.45;10.63;;;77.20;1945.60;;;;;;5070343;28;20387;-63
2022/02/27 03:37:43;;;;;;;15.63;12.18;;;77.30;2227.20;;;;;;5070024;28;20067;-60
2022/02/27 03:40:09;;;;;;;14.85;10.52;;;77.30;2227.20;;;;;;5070244;28;20048;-62
2022/02/27 03:42:35;;;;;;;12.63;8.60;;;77.40;2227.20;;;;;;5070204;28;20379;-64
2022/02/27 03:45:00;;;;;;;12.77;9.38;;;77.40;2227.20;;;;;;5069704;28;20028;-57
2022/02/27 03:47:26;;;;;;;20.33;13.50;;;77.50;2227.20;;;;;;5070087;28;20028;-64
2022/02/27 03:49:54;;;;;;;22.00;16.08;;;77.40;2227.20;;;;;;5069613;28;20386;-63
2022/02/27 03:52:20;;;;;;;19.17;14.57;;;77.40;2227.20;;;;;;5069818;28;20545;-63
2022/02/27 03:54:46;;;;;;;16.65;12.60;;;77.40;2227.20;;;;;;5070185;28;20081;-64
2022/02/27 03:57:11;;;;;;;18.80;13.30;;;77.40;2227.20;;;;;;5069601;28;20033;-63
2022/02/27 03:59:37;;;;;;;17.60;12.10;;;77.50;2227.20;;;;;;5069674;28;20056;-64
2022/02/27 04:02:03;;;;;;;21.00;15.35;;;77.70;2227.20;;;;;;5069649;28;20035;-63
2022/02/27 04:04:29;;;;;;;23.55;16.38;;;77.70;2227.20;;;;;;5069501;28;20020;-61
2022/02/27 04:06:55;;;;;;;31.20;20.35;;;102.40;2227.20;;;;;;5069626;28;20051;-63
2022/02/27 04:09:21;;;;;;;29.67;19.80;;;102.40;2227.20;;;;;;5069277;28;20474;-63
2022/02/27 04:11:46;;;;;;;28.50;19.05;;;77.50;2227.20;;;;;;5069776;28;20032;-63
2022/02/27 04:14:12;;;;;;;31.35;21.02;;;77.40;2227.20;;;;;;5069217;28;20411;-64
2022/02/27 04:16:38;;;;;;;32.42;23.10;;;77.70;2227.20;;;;;;5069449;28;20410;-59
2022/02/27 04:19:05;;;;;;;32.25;21.88;;;77.50;2227.20;;;;;;5069368;28;20025;-64
2022/02/27 04:21:31;;;;;;;26.63;18.48;;;77.60;2227.20;;;;;;5069326;28;20036;-63
2022/02/27 04:23:57;;;;;;;49.72;44.60;;;77.60;2227.20;;;;;;5069404;28;20378;-63
2022/02/27 04:26:22;;;;;;;21.25;16.17;;;102.50;2227.20;;;;;;5069631;28;20107;-63
2022/02/27 04:28:48;;;;;;;42.53;36.75;;;102.60;2227.20;;;;;;5068935;28;20070;-64
2022/02/27 04:31:14;;;;;;;18.67;15.07;;;102.80;2227.20;;;;;;5069144;28;20053;-61
2022/02/27 04:33:40;;;;;;;15.15;11.15;;;102.70;2227.20;;;;;;5069006;28;20037;-61
2022/02/27 04:36:05;;;;;;;18.50;13.68;;;102.50;2227.20;;;;;;5069372;28;20099;-64
2022/02/27 04:38:31;;;;;;;15.55;13.50;;;102.60;2227.20;;;;;;5069043;28;20095;-64
2022/02/27 04:40:57;;;;;;;15.00;12.30;;;102.60;2227.20;;;;;;5069228;28;20035;-63
2022/02/27 04:43:23;;;;;;;19.92;14.82;;;102.50;2227.20;;;;;;5068987;28;20036;-61
2022/02/27 04:45:49;;;;;;;15.90;11.43;;;102.50;2227.20;;;;;;5069090;28;20378;-64
2022/02/27 04:48:14;;;;;;;16.50;13.52;;;77.70;2227.20;;;;;;5069420;28;20028;-63
2022/02/27 04:50:40;;;;;;;15.82;12.00;;;102.70;2227.20;;;;;;5068966;28;20115;-64
2022/02/27 04:53:06;;;;;;;20.83;17.55;;;102.60;2227.20;;;;;;5069170;28;20024;-65
2022/02/27 04:55:32;;;;;;;19.77;12.80;;;102.80;2227.20;;;;;;5068808;28;20024;-65
2022/02/27 04:57:57;;;;;;;22.55;16.60;;;102.80;2227.20;;;;;;5069067;28;20459;-64
2022/02/27 05:00:23;;;;;;;23.08;16.75;;;102.70;2227.20;;;;;;5069136;28;20113;-64
2022/02/27 05:02:49;;;;;;;23.45;17.55;;;102.60;2227.20;;;;;;5068972;28;20162;-64
2022/02/27 05:05:14;;;;;;;32.85;22.23;;;102.70;2227.20;;;;;;5069184;28;20379;-63
2022/02/27 05:07:40;;;;;;;42.42;26.67;;;102.60;2227.20;;;;;;5068848;28;20033;-62
2022/02/27 05:10:08;;;;;;;39.00;27.80;;;102.60;2227.20;;;;;;5068872;28;20033;-64
2022/02/27 05:12:37;;;;;;;32.08;26.65;;;102.50;2227.20;;;;;;5069072;28;20025;-64
2022/02/27 05:15:04;;;;;;;33.55;26.05;;;102.60;2227.20;;;;;;5068810;28;20378;-65
2022/02/27 05:17:30;;;;;;;30.15;20.35;;;102.50;2227.20;;;;;;5068529;28;20054;-65
2022/02/27 05:19:56;;;;;;;26.25;19.00;;;102.60;2227.20;;;;;;5069016;28;20024;-64
2022/02/27 05:22:21;;;;;;;29.35;22.52;;;102.60;2227.20;;;;;;5068632;28;20461;-65
2022/02/27 05:24:47;;;;;;;26.15;19.50;;;102.80;2227.20;;;;;;5068948;28;20038;-62
2022/02/27 05:27:14;;;;;;;21.98;17.10;;;103.00;2227.20;;;;;;5068679;28;20388;-65
2022/02/27 05:29:40;;;;;;;22.65;16.80;;;103.00;2227.20;;;;;;5068347;28;20060;-60
2022/02/27 05:32:06;;;;;;;40.75;27.27;;;102.90;2227.20;;;;;;5069010;28;20027;-62
2022/02/27 05:34:32;;;;;;;61.00;45.63;;;102.60;2227.20;;;;;;5068537;28;20020;-61
2022/02/27 05:36:57;;;;;;;40.92;26.55;;;102.80;2227.20;;;;;;5068522;28;20035;-58
2022/02/27 05:39:23;;;;;;;61.17;40.75;;;102.80;2227.20;;;;;;5068661;28;20025;-63
2022/02/27 05:41:49;;;;;;;60.20;39.88;;;102.80;2227.20;;;;;;5068522;28;20064;-68
2022/02/27 05:44:15;;;;;;;67.40;46.40;;;102.80;2227.20;;;;;;5068903;28;20020;-65
2022/02/27 05:46:41;;;;;;;58.40;37.05;;;103.00;2227.20;;;;;;5068323;28;20466;-64
2022/02/27 05:49:06;;;;;;;53.17;36.40;;;103.10;2227.20;;;;;;5068590;28;20463;-62
2022/02/27 05:51:32;;;;;;;43.13;29.10;;;103.10;2227.20;;;;;;5068276;28;20024;-68
2022/02/27 05:53:58;;;;;;;38.75;31.67;;;103.10;2227.20;;;;;;5068498;28;20021;-61
2022/02/27 05:56:24;;;;;;;40.90;35.85;;;103.20;2227.20;;;;;;5071378;28;20414;-60
2022/02/27 05:58:51;;;;;;;37.92;28.23;;;103.20;2227.20;;;;;;5071857;28;20147;-65
2022/02/27 06:01:17;;;;;;;51.83;32.50;;;102.90;2227.20;;;;;;5072534;28;20032;-65
2022/02/27 06:03:43;;;;;;;65.30;37.88;;;103.00;2227.20;;;;;;5071978;28;20429;-65
2022/02/27 06:06:08;;;;;;;82.22;65.07;;;103.10;2227.20;;;;;;5071887;28;20090;-60
2022/02/27 06:08:34;;;;;;;40.22;26.35;;;103.20;2227.20;;;;;;5071859;28;20103;-63
2022/02/27 06:11:00;;;;;;;34.40;23.08;;;128.00;2252.80;;;;;;5071556;28;20048;-64
2022/02/27 06:13:26;;;;;;;72.28;59.60;;;103.30;2227.20;;;;;;5072159;28;20020;-67
2022/02/27 06:15:51;;;;;;;47.10;32.53;;;128.10;2252.80;;;;;;5071332;28;20025;-64
2022/02/27 06:18:17;;;;;;;53.47;35.45;;;128.20;2252.80;;;;;;5071822;28;20099;-61
2022/02/27 06:20:43;;;;;;;46.85;29.88;;;128.40;2252.80;;;;;;5071473;28;20024;-63
2022/02/27 06:23:10;;;;;;;64.28;46.97;;;128.40;2252.80;;;;;;5071630;28;20021;-64
2022/02/27 06:25:36;;;;;;;57.47;38.05;;;128.40;2252.80;;;;;;5071397;28;20107;-67
2022/02/27 06:28:03;;;;;;;67.47;46.58;;;128.40;2252.80;;;;;;5070816;28;20055;-64
2022/02/27 06:30:29;;;;;;;31.45;25.00;;;128.50;2252.80;;;;;;5071149;28;20037;-63
2022/02/27 06:32:54;;;;;;;27.38;19.40;;;128.60;2252.80;;;;;;5071451;28;20020;-67
2022/02/27 06:35:23;;;;;;;36.42;25.00;;;128.60;2252.80;;;;;;5071348;28;20382;-63
2022/02/27 06:37:50;;;;;;;34.55;23.17;;;128.60;2252.80;;;;;;5071211;28;20103;-65
2022/02/27 06:40:18;;;;;;;35.80;26.67;;;128.60;2252.80;;;;;;5071276;28;20479;-65
2022/02/27 06:42:44;;;;;;;41.10;27.45;;;128.60;2252.80;;;;;;5071237;28;20115;-64
2022/02/27 06:45:11;;;;;;;42.60;29.48;;;128.80;2252.80;;;;;;5071113;28;20095;-66
2022/02/27 06:47:36;;;;;;;86.07;58.85;;;128.90;2252.80;;;;;;5071013;28;20025;-63
2022/02/27 06:50:04;;;;;;;71.13;50.47;;;128.90;2252.80;;;;;;5070960;28;20081;-65
2022/02/27 06:52:29;;;;;;;76.90;50.80;;;153.60;2252.80;;;;;;5070911;28;20018;-63
2022/02/27 06:54:55;;;;;;;89.90;65.05;;;153.60;2252.80;;;;;;5070932;28;20032;-65
2022/02/27 06:57:21;;;;;;;121.93;76.50;;;153.70;2252.80;;;;;;5070662;28;20025;-64
2022/02/27 06:59:46;;;;;;;140.45;94.50;;;153.70;2252.80;;;;;;5066259;28;20036;-65
2022/02/27 07:02:12;;;;;;;130.43;85.20;;;153.70;2252.80;;;;;;5050901;28;20063;-64
2022/02/27 07:04:38;;;;;;;135.18;90.47;;;154.10;2252.80;;;;;;5050727;28;20147;-65
2022/02/27 07:07:04;;;;;;;132.95;87.70;;;153.80;2252.80;;;;;;5050189;28;20064;-65
2022/02/27 07:09:30;;;;;;;120.07;78.43;;;153.80;2252.80;;;;;;5050408;28;20050;-65
2022/02/27 07:11:56;;;;;;;110.85;70.93;;;153.90;2252.80;;;;;;5050569;28;20037;-67
2022/02/27 07:14:22;;;;;;;69.40;47.80;;;154.00;2252.80;;;;;;5050373;28;20072;-64
2022/02/27 07:16:47;;;;;;;43.38;28.58;;;154.00;2252.80;;;;;;5050633;28;20116;-58
2022/02/27 07:19:13;;;;;;;54.45;39.22;;;153.60;2252.80;;;;;;5050762;28;20028;-67
2022/02/27 07:21:39;;;;;;;72.10;47.75;;;153.80;2252.80;;;;;;5052861;28;20056;-66
2022/02/27 07:24:05;;;;;;;63.63;45.65;;;153.80;2252.80;;;;;;5050638;28;20060;-64
2022/02/27 07:26:31;;;;;;;65.05;42.75;;;153.80;2252.80;;;;;;5049590;28;20028;-67
2022/02/27 07:28:57;;;;;;;107.72;72.70;;;153.90;2252.80;;;;;;5049873;28;20060;-62
2022/02/27 07:31:23;;;;;;;80.68;51.88;;;128.90;2252.80;;;;;;5050159;28;20037;-64
2022/02/27 07:33:49;;;;;;;82.18;58.03;;;153.80;2252.80;;;;;;5050207;28;20017;-63
2022/02/27 07:36:15;;;;;;;98.43;61.88;;;153.60;2252.80;;;;;;5050212;28;20025;-66
2022/02/27 07:38:41;;;;;;;109.32;70.82;;;153.60;2252.80;;;;;;5050051;28;20074;-67
2022/02/27 07:41:07;;;;;;;131.95;82.93;;;153.70;2252.80;;;;;;5050102;28;20037;-62
2022/02/27 07:43:33;;;;;;;100.20;63.47;;;153.80;2252.80;;;;;;5050055;28;20357;-62
2022/02/27 07:45:59;;;;;;;74.57;44.83;;;153.80;2252.80;;;;;;5049780;28;20083;-63
2022/02/27 07:48:25;;;;;;;112.88;75.28;;;153.80;2252.80;;;;;;5049976;28;20025;-63
2022/02/27 07:50:52;;;;;;;141.10;86.65;;;153.70;2252.80;;;;;;5057645;28;20033;-63
2022/02/27 07:53:17;;;;;;;931.47;634.15;;;153.80;2252.80;;;;;;5058627;28;20111;-59
2022/02/27 07:55:43;;;;;;;816.17;561.17;;;153.90;2252.80;;;;;;5051988;28;20473;-65
2022/02/27 07:58:12;;;;;;;566.17;382.92;;;154.00;2252.80;;;;;;5049449;28;20104;-63
2022/02/27 08:00:38;;;;;;;202.13;125.85;;;154.30;2252.80;;;;;;5055268;28;20025;-65
2022/02/27 08:03:04;;;;;;;161.93;108.22;;;154.30;2252.80;;;;;;5059689;28;20031;-67
2022/02/27 08:05:30;;;;;;;123.78;84.18;;;154.50;2252.80;;;;;;5054166;28;20033;-64
2022/02/27 08:07:57;;;;;;;102.88;73.63;;;179.30;2252.80;;;;;;5049812;28;20100;-63
2022/02/27 08:10:23;;;;;;;95.97;68.80;;;179.40;2252.80;;;;;;5049555;28;20037;-62
2022/02/27 08:12:49;;;;;;;91.85;65.03;;;179.40;2252.80;;;;;;5049365;28;20047;-62
2022/02/27 08:15:16;;;;;;;90.30;59.70;;;179.40;2252.80;;;;;;5049768;28;20108;-58
2022/02/27 08:17:43;;;;;;;73.50;51.15;;;179.30;2252.80;;;;;;5056426;28;20025;-62
2022/02/27 08:20:10;;;;;;;90.53;61.47;;;154.50;2252.80;;;;;;5059343;28;20040;-63
2022/02/27 08:22:37;;;;;;;78.28;57.70;;;179.20;2252.80;;;;;;5049501;28;20017;-67
2022/02/27 08:25:04;;;;;;;100.15;67.30;;;179.20;2252.80;;;;;;5049351;28;20036;-68
2022/02/27 08:27:30;;;;;;;71.18;52.60;;;154.50;2252.80;;;;;;5048731;28;20040;-67
2022/02/27 08:29:55;;;;;;;79.95;53.92;;;154.50;2252.80;;;;;;5049268;28;20124;-67
2022/02/27 08:32:21;;;;;;;125.93;89.55;;;154.30;2252.80;;;;;;5049142;28;20048;-62
2022/02/27 08:34:47;;;;;;;113.93;76.18;;;179.20;2252.80;;;;;;5049530;28;20033;-67
2022/02/27 08:37:13;;;;;;;115.97;81.13;;;179.40;2252.80;;;;;;5049257;28;20029;-57
2022/02/27 08:39:39;;;;;;;97.88;72.95;;;179.50;2252.80;;;;;;5049030;28;20108;-68
2022/02/27 08:42:05;;;;;;;96.20;65.90;;;179.40;2252.80;;;;;;5049250;28;20112;-61
2022/02/27 08:44:34;;;;;;;97.40;67.22;;;179.50;2252.80;;;;;;5048521;28;20067;-58
2022/02/27 08:47:01;;;;;;;100.63;69.13;;;179.70;2252.80;;;;;;5069013;28;20062;-66
2022/02/27 08:49:27;;;;;;;98.55;68.55;;;179.50;2252.80;;;;;;5068907;28;20048;-64
2022/02/27 08:51:52;;;;;;;95.47;67.28;;;179.30;2252.80;;;;;;5069069;28;20028;-67
2022/02/27 08:54:19;;;;;;;92.63;64.72;;;179.50;2252.80;;;;;;5069205;28;20059;-69
2022/02/27 08:56:44;;;;;;;103.93;76.38;;;179.50;2252.80;;;;;;5068789;28;20107;-58
2022/02/27 08:59:10;;;;;;;86.80;58.95;;;179.50;2252.80;;;;;;5057126;28;20116;-59
2022/02/27 09:01:36;;;;;;;75.68;54.13;;;179.60;2252.80;;;;;;5058699;28;20017;-63
2022/02/27 09:04:02;;;;;;;85.55;56.03;;;179.80;2252.80;;;;;;5058962;28;20040;-56
2022/02/27 09:06:27;;;;;;;77.20;49.00;;;179.80;2252.80;;;;;;5057318;28;20113;-59
2022/02/27 09:08:53;;;;;;;70.88;48.20;;;179.80;2252.80;;;;;;5058889;28;20371;-67
2022/02/27 09:11:19;;;;;;;67.53;44.53;;;179.80;2252.80;;;;;;5058566;28;20061;-66
2022/02/27 09:13:45;;;;;;;63.13;43.80;;;179.80;2252.80;;;;;;5057421;28;20023;-67
2022/02/27 09:16:10;;;;;;;73.82;45.03;;;179.70;2252.80;;;;;;5059179;28;20028;-56
2022/02/27 09:18:36;;;;;;;79.72;49.17;;;179.60;2252.80;;;;;;5058038;28;20020;-63
2022/02/27 09:21:02;;;;;;;88.80;58.67;;;179.80;2252.80;;;;;;5050237;28;20526;-63
2022/02/27 09:23:28;;;;;;;65.38;45.47;;;179.70;2252.80;;;;;;5056680;28;20384;-63
2022/02/27 09:25:54;;;;;;;57.88;37.75;;;179.80;2252.80;;;;;;5069059;28;20032;-62
2022/02/27 09:28:20;;;;;;;82.32;46.90;;;179.90;2252.80;;;;;;5069188;28;20144;-65
2022/02/27 09:30:45;;;;;;;64.40;41.45;;;179.40;2252.80;;;;;;5070255;28;20176;-63
2022/02/27 09:33:11;;;;;;;56.83;40.05;;;179.60;2252.80;;;;;;5062956;28;20040;-64
2022/02/27 09:35:37;;;;;;;75.78;52.50;;;179.60;2252.80;;;;;;5060268;28;20028;-67
2022/02/27 09:38:04;;;;;;;29.55;20.83;;;179.50;2252.80;;;;;;5053286;28;20142;-63
2022/02/27 09:40:30;;;;;;;28.48;22.65;;;179.60;2252.80;;;;;;5057945;28;20025;-64
2022/02/27 09:42:56;;;;;;;40.45;29.63;;;179.60;2252.80;;;;;;5060086;28;20072;-65
2022/02/27 09:45:23;;;;;;;49.55;35.97;;;179.80;2252.80;;;;;;5060386;28;20446;-65
2022/02/27 09:47:51;;;;;;;44.75;30.85;;;179.70;2252.80;;;;;;5062553;28;20028;-62
2022/02/27 09:50:19;;;;;;;41.30;31.38;;;179.60;2252.80;;;;;;5062059;28;20052;-64
2022/02/27 09:52:45;;;;;;;43.97;31.63;;;179.60;2252.80;;;;;;5058306;28;20021;-63
2022/02/27 09:55:13;;;;;;;38.38;27.67;;;179.50;2252.80;;;;;;5058941;28;20028;-62
2022/02/27 09:57:40;;;;;;;38.85;27.52;;;179.60;2252.80;;;;;;5056798;28;20036;-66
2022/02/27 10:00:10;;;;;;;40.72;26.85;;;179.40;2252.80;;;;;;5053128;28;20167;-62
2022/02/27 10:03:03;;;;;;;44.15;28.73;;;179.50;2252.80;;;;;;5053389;28;20133;-64
2022/02/27 10:05:28;;;;;;;51.35;33.85;;;179.50;2252.80;;;;;;5058769;28;20017;-64
2022/02/27 10:08:01;;;;;;;61.25;39.55;;;179.40;2252.80;;;;;;5059915;28;20032;-63
2022/02/27 10:10:28;;;;;;;53.42;35.95;;;179.50;2252.80;;;;;;5058909;28;20032;-64
2022/02/27 10:12:54;;;;;;;52.00;34.97;;;179.40;2252.80;;;;;;5059979;28;20044;-65
2022/02/27 10:15:20;;;;;;;33.67;23.67;;;179.50;2252.80;;;;;;5060086;28;20029;-63
2022/02/27 10:17:49;;;;;;;33.03;24.42;;;179.30;2252.80;;;;;;5059612;28;20124;-66
2022/02/27 10:20:19;;;;;;;52.50;32.97;;;179.40;2252.80;;;;;;5060484;28;20017;-62
2022/02/27 10:22:48;;;;;;;40.75;28.55;;;179.30;2252.80;;;;;;5057160;28;20028;-63
2022/02/27 10:25:23;;;;;;;79.20;49.90;;;154.50;2252.80;;;;;;5065068;28;20021;-66
2022/02/27 10:27:51;;;;;;;56.42;37.47;;;179.20;2252.80;;;;;;5057775;28;20512;-67
2022/02/27 10:30:29;;;;;;;33.50;22.63;;;179.20;2252.80;;;;;;5060216;28;20033;-63
2022/02/27 10:33:04;;;;;;;25.73;18.50;;;179.30;2252.80;;;;;;5057710;28;20399;-63
2022/02/27 10:35:35;;;;;;;28.77;20.77;;;179.20;2252.80;;;;;;5055389;28;20495;-63
2022/02/27 10:38:02;;;;;;;43.75;30.15;;;179.30;2252.80;;;;;;5060770;28;20090;-64
2022/02/27 10:40:39;;;;;;;44.15;28.73;;;179.30;2252.80;;;;;;5060761;28;20502;-63
2022/02/27 10:43:10;;;;;;;35.92;23.05;;;179.20;2252.80;;;;;;5057108;28;20032;-62
2022/02/27 10:45:38;;;;;;;39.88;26.00;;;179.40;2252.80;;;;;;5056749;28;20035;-63
2022/02/27 10:48:16;;;;;;;36.83;24.20;;;179.60;2252.80;;;;;;5058824;28;20056;-63
2022/02/27 10:50:44;;;;;;;30.15;19.88;;;179.50;2252.80;;;;;;5051533;28;20032;-65
2022/02/27 10:53:12;;;;;;;39.15;24.05;;;179.60;2252.80;;;;;;5055825;28;20442;-67
2022/02/27 10:55:38;;;;;;;44.13;24.40;;;179.60;2252.80;;;;;;5059970;28;20382;-66
2022/02/27 10:58:04;;;;;;;60.95;35.63;;;179.50;2252.80;;;;;;5058484;28;20021;-65
2022/02/27 11:00:32;;;;;;;60.00;35.35;;;179.70;2252.80;;;;;;5062765;28;20490;-63
2022/02/27 11:03:13;;;;;;;63.13;41.45;;;179.60;2252.80;;;;;;5064521;28;20025;-63
2022/02/27 11:05:43;;;;;;;50.45;31.08;;;179.70;2252.80;;;;;;5060726;28;20098;-63
2022/02/27 11:08:11;;;;;;;54.28;31.67;;;179.80;2252.80;;;;;;5061931;28;20021;-62
2022/02/27 11:10:49;;;;;;;56.15;32.45;;;179.90;2252.80;;;;;;5059689;28;20495;-63
2022/02/27 11:13:16;;;;;;;49.78;31.48;;;180.10;2252.80;;;;;;5057895;28;20108;-63
2022/02/27 11:15:42;;;;;;;49.70;32.40;;;179.80;2252.80;;;;;;5057056;28;20021;-63
2022/02/27 11:18:08;;;;;;;45.38;29.27;;;179.90;2252.80;;;;;;5061579;28;20013;-61
2022/02/27 11:20:35;;;;;;;35.47;22.60;;;180.00;2252.80;;;;;;5053318;28;20421;-63
2022/02/27 11:23:01;;;;;;;42.80;27.73;;;180.00;2252.80;;;;;;5068353;28;20352;-61
2022/02/27 11:25:28;;;;;;;33.40;22.95;;;204.80;2252.80;;;;;;5069826;28;20032;-63
2022/02/27 11:28:08;;;;;;;31.70;19.70;;;;;;;;;;5069510;28;20052;-62
2022/02/27 11:30:36;;;;;;;35.38;24.92;;;;;;;;;;5069529;28;20036;-62
2022/02/27 11:33:07;;;;;;;32.03;20.38;;;205.20;2252.80;;;;;;5069320;28;20055;-63
2022/02/27 11:35:39;;;;;;;40.13;25.10;;;;;;;;;;5068927;28;20028;-60
2022/02/27 11:38:07;;;;;;;59.87;35.80;;;;;;;;;;5069706;28;20029;-64
2022/02/27 11:40:44;;;;;;;41.40;27.15;;;;;;;;;;5067278;28;20036;-62
2022/02/27 11:43:10;;;;;;;48.67;30.02;;;;;;;;;;5049301;28;20027;-62
2022/02/27 11:45:36;;;;;;;56.28;36.75;;;;;;;;;;5049667;28;20111;-61
2022/02/27 11:48:03;;;;;;;33.22;23.80;;;;;;;;;;5048859;28;20033;-62
2022/02/27 11:50:30;;;;;;;27.75;18.05;;;;;;;;;;5049134;28;20033;-62
2022/02/27 11:52:57;;;;;;;86.03;57.92;;;;;;;;;;5049332;28;20021;-62
2022/02/27 11:55:41;;;;;;;48.10;31.27;;;;;;;;;;5051239;28;20029;-62
2022/02/27 11:58:27;;;;;;;65.15;41.00;;;;;;;;;;5048950;28;20480;-62
2022/02/27 12:00:58;;;;;;;36.58;25.55;;;;;;;;;;5050719;28;20075;-62
2022/02/27 12:03:30;;;;;;;27.95;19.92;;;;;;;;;;5048017;28;20032;-62
2022/02/27 12:06:00;;;;;;;29.90;19.08;;;;;;;;;;5049152;28;20032;-63
2022/02/27 12:08:39;;;;;;;23.23;17.75;;;;;;;;;;5048982;28;20025;-61